createdAt,value
2023-03-16T00:00:15.453Z,173.80
2023-03-16T00:01:17.973Z,137.68
2023-03-16T00:02:25.854Z,180.70
2023-03-16T00:03:30.568Z,130.60
2023-03-16T00:04:37.683Z,126.90
2023-03-16T00:05:39.909Z,142.00
2023-03-16T00:06:44.630Z,133.70
2023-03-16T00:07:46.831Z,133.57
2023-03-16T00:08:51.452Z,239.38
2023-03-16T00:09:54.795Z,118.20
2023-03-16T00:10:59.349Z,139.75
2023-03-16T00:12:03.333Z,233.95
2023-03-16T00:13:07.867Z,177.35
2023-03-16T00:14:10.034Z,183.38
2023-03-16T00:15:16.416Z,212.77
2023-03-16T00:16:18.687Z,127.72
2023-03-16T00:17:26.843Z,162.30
2023-03-16T00:18:29.459Z,184.82
2023-03-16T00:19:35.284Z,163.48
2023-03-16T00:20:37.249Z,114.63
2023-03-16T00:21:41.817Z,123.55
2023-03-16T00:22:44.761Z,190.88
2023-03-16T00:23:49.251Z,117.03
2023-03-16T00:24:52.862Z,109.78
2023-03-16T00:25:58.778Z,203.40
2023-03-16T00:27:01.134Z,127.60
2023-03-16T00:28:05.720Z,144.27
2023-03-16T00:29:07.674Z,253.77
2023-03-16T00:30:13.909Z,191.38
2023-03-16T00:31:18.590Z,103.72
2023-03-16T00:32:24.627Z,158.32
2023-03-16T00:33:30.006Z,112.03
2023-03-16T00:34:34.744Z,106.85
2023-03-16T00:35:39.288Z,204.82
2023-03-16T00:36:42.579Z,126.55
2023-03-16T00:37:47.189Z,149.27
2023-03-16T00:38:50.079Z,299.42
2023-03-16T00:39:56.464Z,160.73
2023-03-16T00:40:58.643Z,143.90
2023-03-16T00:42:03.221Z,186.90
2023-03-16T00:43:05.554Z,207.00
2023-03-16T00:44:10.095Z,181.18
2023-03-16T00:45:12.159Z,334.20
2023-03-16T00:46:18.843Z,188.90
2023-03-16T00:47:24.291Z,153.13
2023-03-16T00:48:28.807Z,167.48
2023-03-16T00:49:34.843Z,170.50
2023-03-16T00:50:39.737Z,218.10
2023-03-16T00:51:46.114Z,161.38
2023-03-16T00:52:53.696Z,191.00
2023-03-16T00:53:55.788Z,177.07
2023-03-16T00:55:00.408Z,167.23
2023-03-16T00:56:04.434Z,211.80
2023-03-16T00:57:09.141Z,219.65
2023-03-16T00:58:14.938Z,242.48
2023-03-16T00:59:20.207Z,241.65
2023-03-16T01:00:28.682Z,174.98
2023-03-16T01:01:32.908Z,147.65
2023-03-16T01:02:40.101Z,189.20
2023-03-16T01:03:42.121Z,252.98
2023-03-16T01:04:46.729Z,169.20
2023-03-16T01:05:49.119Z,214.25
2023-03-16T01:06:53.755Z,285.60
2023-03-16T01:07:55.713Z,195.23
2023-03-16T01:09:00.788Z,208.15
2023-03-16T01:10:03.388Z,267.67
2023-03-16T01:11:10.414Z,232.00
2023-03-16T01:12:15.300Z,227.05
2023-03-16T01:13:19.843Z,261.33
2023-03-16T01:14:22.908Z,203.52
2023-03-16T01:15:27.467Z,200.48
2023-03-16T01:16:30.133Z,205.38
2023-03-16T01:17:35.264Z,213.35
2023-03-16T01:18:41.533Z,210.43
2023-03-16T01:19:46.721Z,230.50
2023-03-16T01:20:51.047Z,233.45
2023-03-16T01:21:55.762Z,229.38
2023-03-16T01:22:57.829Z,217.15
2023-03-16T01:24:02.785Z,221.23
2023-03-16T01:25:05.847Z,268.88
2023-03-16T01:26:10.523Z,261.45
2023-03-16T01:27:14.307Z,248.25
2023-03-16T01:28:19.287Z,265.60
2023-03-16T01:29:22.086Z,212.57
2023-03-16T01:30:27.105Z,215.25
2023-03-16T01:31:29.516Z,221.05
2023-03-16T01:32:34.230Z,197.25
2023-03-16T01:33:39.708Z,218.98
2023-03-16T01:34:44.247Z,223.45
2023-03-16T01:35:52.703Z,237.13
2023-03-16T01:36:57.255Z,202.02
2023-03-16T01:37:59.316Z,229.45
2023-03-16T01:39:03.821Z,281.40
2023-03-16T01:40:07.837Z,233.60
2023-03-16T01:41:12.861Z,283.33
2023-03-16T01:42:15.005Z,238.27
2023-03-16T01:43:20.984Z,363.58
2023-03-16T01:44:28.327Z,287.27
2023-03-16T01:46:14.517Z,279.42
2023-03-16T01:47:16.681Z,346.20
2023-03-16T01:48:24.139Z,345.83
2023-03-16T01:49:35.120Z,310.50
2023-03-16T01:50:37.103Z,307.92
2023-03-16T01:51:45.999Z,202.88
2023-03-16T01:52:48.138Z,200.57
2023-03-16T01:53:56.531Z,213.48
2023-03-16T01:55:02.793Z,170.18
2023-03-16T01:56:11.268Z,203.60
2023-03-16T01:57:20.149Z,254.38
2023-03-16T01:58:22.825Z,202.70
2023-03-16T01:59:33.379Z,191.43
2023-03-16T02:00:35.362Z,236.30
2023-03-16T02:01:43.787Z,175.25
2023-03-16T02:02:49.920Z,159.07
2023-03-16T02:03:58.137Z,231.00
2023-03-16T02:05:07.906Z,202.07
2023-03-16T02:06:15.649Z,299.40
2023-03-16T02:07:21.994Z,269.92
2023-03-16T02:08:25.533Z,210.30
2023-03-16T02:09:30.979Z,230.63
2023-03-16T02:10:34.057Z,226.18
2023-03-16T02:11:39.329Z,231.57
2023-03-16T02:12:41.545Z,208.63
2023-03-16T02:13:46.123Z,206.98
2023-03-16T02:14:49.549Z,251.13
2023-03-16T02:15:54.901Z,198.88
2023-03-16T02:16:57.228Z,229.73
2023-03-16T02:18:03.011Z,148.63
2023-03-16T02:19:09.215Z,198.38
2023-03-16T02:20:29.071Z,226.73
2023-03-16T02:21:36.867Z,338.33
2023-03-16T02:22:46.295Z,157.68
2023-03-16T02:23:50.919Z,192.73
2023-03-16T02:24:55.770Z,266.35
2023-03-16T02:26:04.345Z,195.75
2023-03-16T02:27:12.226Z,208.82
2023-03-16T02:28:23.089Z,388.73
2023-03-16T02:29:47.314Z,331.17
2023-03-16T02:30:49.967Z,165.27
2023-03-16T02:31:56.480Z,167.40
2023-03-16T02:32:58.835Z,244.40
2023-03-16T02:34:04.812Z,172.45
2023-03-16T02:35:08.637Z,324.27
2023-03-16T02:36:13.473Z,201.25
2023-03-16T02:37:15.572Z,189.50
2023-03-16T02:38:20.271Z,186.05
2023-03-16T02:39:22.185Z,217.93
2023-03-16T02:40:29.221Z,287.98
2023-03-16T02:41:33.075Z,267.63
2023-03-16T02:42:37.857Z,141.98
2023-03-16T02:43:43.547Z,230.00
2023-03-16T02:44:56.542Z,271.88
2023-03-16T02:46:03.917Z,194.93
2023-03-16T02:47:12.907Z,204.90
2023-03-16T02:48:22.408Z,244.48
2023-03-16T02:49:30.514Z,184.63
2023-03-16T02:50:32.582Z,195.60
2023-03-16T02:51:37.391Z,225.52
2023-03-16T02:52:41.270Z,257.10
2023-03-16T02:53:45.894Z,167.43
2023-03-16T02:54:47.841Z,212.98
2023-03-16T02:55:52.448Z,196.52
2023-03-16T02:56:54.538Z,155.77
2023-03-16T02:57:59.200Z,233.98
2023-03-16T02:59:01.465Z,234.35
2023-03-16T03:00:14.476Z,155.35
2023-03-16T03:01:16.962Z,242.02
2023-03-16T03:02:21.622Z,216.65
2023-03-16T03:03:24.109Z,203.25
2023-03-16T03:04:28.810Z,261.42
2023-03-16T03:05:31.149Z,138.60
2023-03-16T03:06:36.518Z,141.27
2023-03-16T03:07:39.280Z,174.15
2023-03-16T03:08:44.194Z,139.15
2023-03-16T03:09:46.265Z,231.27
2023-03-16T03:10:51.484Z,132.40
2023-03-16T03:11:53.692Z,161.32
2023-03-16T03:12:58.538Z,181.60
2023-03-16T03:14:00.604Z,121.63
2023-03-16T03:15:08.358Z,161.80
2023-03-16T03:16:10.715Z,187.15
2023-03-16T03:17:15.364Z,191.32
2023-03-16T03:18:17.556Z,219.60
2023-03-16T03:19:23.225Z,207.55
2023-03-16T03:20:25.361Z,213.57
2023-03-16T03:21:30.400Z,216.27
2023-03-16T03:22:32.505Z,163.20
2023-03-16T03:23:37.753Z,140.68
2023-03-16T03:24:42.713Z,229.20
2023-03-16T03:25:45.565Z,165.75
2023-03-16T03:26:50.253Z,196.80
2023-03-16T03:27:54.680Z,180.90
2023-03-16T03:28:59.406Z,193.35
2023-03-16T03:30:01.724Z,168.57
2023-03-16T03:31:09.120Z,158.52
2023-03-16T03:32:11.558Z,282.55
2023-03-16T03:33:16.201Z,317.50
2023-03-16T03:34:18.293Z,195.98
2023-03-16T03:35:23.793Z,219.90
2023-03-16T03:36:25.789Z,286.58
2023-03-16T03:37:30.498Z,186.00
2023-03-16T03:38:32.624Z,183.30
2023-03-16T03:39:37.358Z,157.68
2023-03-16T03:40:39.664Z,185.40
2023-03-16T03:41:44.368Z,244.43
2023-03-16T03:42:46.943Z,178.00
2023-03-16T03:43:51.549Z,149.13
2023-03-16T03:44:53.925Z,248.52
2023-03-16T03:46:01.056Z,165.32
2023-03-16T03:47:06.160Z,193.07
2023-03-16T03:48:10.959Z,326.92
2023-03-16T03:49:13.041Z,186.32
2023-03-16T03:50:17.757Z,236.95
2023-03-16T03:51:19.924Z,228.40
2023-03-16T03:52:24.732Z,269.17
2023-03-16T03:53:26.744Z,253.82
2023-03-16T03:54:31.457Z,175.75
2023-03-16T03:55:33.511Z,236.88
2023-03-16T03:56:38.357Z,191.57
2023-03-16T03:57:41.213Z,156.63
2023-03-16T03:58:45.769Z,175.10
2023-03-16T03:59:47.837Z,148.30
2023-03-16T04:00:52.528Z,162.25
2023-03-16T04:01:54.896Z,180.50
2023-03-16T04:03:02.317Z,179.43
2023-03-16T04:04:04.484Z,203.50
2023-03-16T04:05:09.913Z,173.30
2023-03-16T04:06:12.066Z,207.20
2023-03-16T04:07:16.829Z,226.98
2023-03-16T04:08:19.080Z,238.70
2023-03-16T04:09:23.892Z,226.85
2023-03-16T04:10:27.347Z,260.63
2023-03-16T04:11:32.262Z,184.90
2023-03-16T04:12:34.367Z,170.55
2023-03-16T04:13:39.041Z,334.85
2023-03-16T04:14:41.102Z,197.80
2023-03-16T04:15:47.010Z,330.33
2023-03-16T04:16:49.045Z,278.98
2023-03-16T04:17:54.057Z,184.35
2023-03-16T04:18:58.963Z,200.82
2023-03-16T04:20:06.066Z,245.48
2023-03-16T04:21:12.765Z,202.48
2023-03-16T04:22:17.384Z,184.68
2023-03-16T04:23:19.866Z,368.48
2023-03-16T04:24:24.490Z,282.38
2023-03-16T04:25:27.754Z,206.57
2023-03-16T04:26:32.855Z,257.60
2023-03-16T04:27:36.617Z,164.63
2023-03-16T04:28:41.588Z,157.13
2023-03-16T04:29:43.821Z,354.30
2023-03-16T04:30:48.521Z,163.23
2023-03-16T04:31:51.217Z,174.98
2023-03-16T04:32:56.482Z,318.90
2023-03-16T04:34:02.519Z,164.77
2023-03-16T04:35:07.853Z,185.82
2023-03-16T04:36:10.401Z,196.10
2023-03-16T04:37:14.979Z,160.32
2023-03-16T04:38:17.041Z,246.00
2023-03-16T04:39:22.114Z,229.27
2023-03-16T04:40:24.621Z,273.75
2023-03-16T04:41:29.447Z,241.30
2023-03-16T04:42:31.615Z,186.75
2023-03-16T04:43:37.058Z,172.57
2023-03-16T04:44:44.559Z,177.77
2023-03-16T04:45:46.868Z,219.55
2023-03-16T04:46:51.512Z,223.05
2023-03-16T04:47:53.539Z,223.05
2023-03-16T04:48:58.816Z,206.88
2023-03-16T04:50:04.794Z,235.05
2023-03-16T04:51:09.989Z,263.23
2023-03-16T04:52:14.948Z,238.50
2023-03-16T04:53:17.358Z,291.50
2023-03-16T04:54:22.076Z,405.77
2023-03-16T04:55:24.353Z,365.30
2023-03-16T04:56:28.968Z,314.98
2023-03-16T04:57:31.336Z,366.70
2023-03-16T04:58:36.143Z,285.00
2023-03-16T04:59:38.243Z,325.98
2023-03-16T05:00:43.188Z,275.52
2023-03-16T05:01:45.319Z,289.23
2023-03-16T05:02:50.504Z,352.40
2023-03-16T05:03:53.090Z,278.02
2023-03-16T05:04:58.026Z,267.65
2023-03-16T05:06:02.782Z,451.27
2023-03-16T05:07:07.489Z,254.15
2023-03-16T05:08:10.966Z,383.17
2023-03-16T05:09:15.615Z,280.88
2023-03-16T05:10:19.190Z,250.07
2023-03-16T05:11:23.915Z,336.63
2023-03-16T05:12:25.896Z,357.73
2023-03-16T05:13:30.842Z,359.75
2023-03-16T05:14:32.966Z,291.33
2023-03-16T05:15:37.778Z,330.50
2023-03-16T05:16:39.814Z,325.63
2023-03-16T05:17:44.759Z,341.58
2023-03-16T05:18:47.240Z,313.23
2023-03-16T05:19:51.985Z,283.67
2023-03-16T05:20:56.191Z,278.95
2023-03-16T05:22:03.483Z,269.73
2023-03-16T05:23:07.630Z,228.60
2023-03-16T05:24:12.329Z,233.93
2023-03-16T05:25:15.967Z,211.77
2023-03-16T05:26:21.016Z,228.02
2023-03-16T05:27:23.142Z,352.13
2023-03-16T05:28:27.931Z,277.75
2023-03-16T05:29:31.387Z,265.38
2023-03-16T05:30:37.082Z,257.63
2023-03-16T05:31:39.291Z,200.77
2023-03-16T05:32:43.896Z,192.32
2023-03-16T05:33:46.091Z,238.95
2023-03-16T05:34:53.281Z,240.98
2023-03-16T05:35:57.577Z,232.57
2023-03-16T05:37:05.027Z,201.75
2023-03-16T05:38:07.548Z,244.23
2023-03-16T05:39:12.297Z,240.32
2023-03-16T05:40:17.316Z,241.48
2023-03-16T05:41:23.078Z,254.68
2023-03-16T05:42:27.047Z,270.85
2023-03-16T05:43:32.020Z,239.77
2023-03-16T05:44:34.565Z,271.40
2023-03-16T05:45:39.198Z,179.52
2023-03-16T05:46:41.241Z,358.88
2023-03-16T05:47:47.356Z,240.00
2023-03-16T05:48:49.369Z,215.85
2023-03-16T05:49:54.056Z,224.80
2023-03-16T05:50:56.268Z,281.45
2023-03-16T05:52:00.850Z,221.57
2023-03-16T05:53:05.566Z,215.23
2023-03-16T05:54:10.465Z,271.98
2023-03-16T05:55:14.815Z,242.63
2023-03-16T05:56:19.583Z,280.60
2023-03-16T05:57:21.728Z,286.60
2023-03-16T05:58:27.068Z,302.38
2023-03-16T05:59:29.348Z,344.55
2023-03-16T06:00:34.697Z,314.10
2023-03-16T06:01:37.486Z,266.90
2023-03-16T06:02:42.197Z,370.77
2023-03-16T06:03:44.250Z,255.77
2023-03-16T06:04:49.047Z,331.65
2023-03-16T06:05:51.072Z,572.72
2023-03-16T06:06:55.753Z,284.60
2023-03-16T06:07:57.966Z,307.80
2023-03-16T06:09:05.388Z,297.65
2023-03-16T06:10:08.928Z,243.55
2023-03-16T06:11:14.323Z,243.50
2023-03-16T06:12:18.984Z,337.00
2023-03-16T06:13:21.547Z,300.30
2023-03-16T06:14:26.236Z,385.13
2023-03-16T06:15:30.745Z,323.13
2023-03-16T06:16:35.576Z,322.98
2023-03-16T06:17:41.624Z,281.83
2023-03-16T06:18:44.182Z,252.30
2023-03-16T06:19:48.899Z,266.10
2023-03-16T06:20:51.056Z,315.63
2023-03-16T06:21:55.771Z,307.95
2023-03-16T06:22:58.401Z,247.02
2023-03-16T06:24:07.834Z,441.95
2023-03-16T06:25:12.339Z,253.88
2023-03-16T06:26:17.099Z,245.70
2023-03-16T06:27:20.470Z,300.92
2023-03-16T06:28:26.422Z,315.73
2023-03-16T06:29:28.579Z,295.00
2023-03-16T06:30:33.441Z,279.08
2023-03-16T06:31:36.283Z,284.42
2023-03-16T06:32:42.243Z,295.25
2023-03-16T06:33:46.909Z,261.15
2023-03-16T06:34:49.259Z,259.27
2023-03-16T06:35:54.120Z,270.25
2023-03-16T06:36:56.198Z,264.70
2023-03-16T06:38:01.225Z,222.85
2023-03-16T06:39:05.955Z,250.88
2023-03-16T06:40:12.621Z,349.08
2023-03-16T06:41:14.653Z,391.40
2023-03-16T06:42:19.314Z,376.50
2023-03-16T06:43:21.309Z,384.00
2023-03-16T06:44:25.973Z,416.35
2023-03-16T06:45:28.008Z,377.33
2023-03-16T06:46:33.150Z,385.67
2023-03-16T06:47:35.176Z,286.35
2023-03-16T06:48:39.720Z,261.33
2023-03-16T06:49:41.779Z,182.13
2023-03-16T06:50:48.459Z,247.00
2023-03-16T06:51:50.830Z,183.18
2023-03-16T06:52:55.497Z,233.50
2023-03-16T06:53:58.076Z,196.38
2023-03-16T06:55:05.491Z,229.90
2023-03-16T06:56:08.166Z,254.15
2023-03-16T06:57:12.930Z,182.18
2023-03-16T06:58:14.998Z,255.90
2023-03-16T06:59:19.628Z,191.50
2023-03-16T07:00:22.409Z,217.82
2023-03-16T07:01:27.036Z,293.17
2023-03-16T07:02:29.246Z,241.35
2023-03-16T07:03:34.317Z,229.57
2023-03-16T07:04:39.181Z,339.65
2023-03-16T07:05:41.296Z,217.90
2023-03-16T07:06:45.974Z,191.85
2023-03-16T07:07:48.224Z,265.67
2023-03-16T07:08:53.153Z,182.35
2023-03-16T07:09:55.189Z,210.25
2023-03-16T07:11:02.430Z,214.85
2023-03-16T07:12:04.718Z,177.63
2023-03-16T07:13:09.397Z,251.02
2023-03-16T07:14:11.984Z,249.35
2023-03-16T07:15:17.268Z,176.80
2023-03-16T07:16:19.427Z,164.90
2023-03-16T07:17:24.654Z,211.63
2023-03-16T07:18:26.972Z,202.88
2023-03-16T07:19:31.884Z,168.57
2023-03-16T07:20:36.813Z,211.57
2023-03-16T07:21:40.982Z,189.57
2023-03-16T07:22:45.695Z,178.35
2023-03-16T07:23:48.040Z,224.18
2023-03-16T07:24:57.454Z,133.05
2023-03-16T07:26:02.235Z,120.60
2023-03-16T07:27:06.969Z,155.20
2023-03-16T07:28:08.962Z,111.80
2023-03-16T07:29:14.026Z,111.88
2023-03-16T07:30:16.349Z,136.35
2023-03-16T07:31:21.186Z,101.10
2023-03-16T07:32:26.165Z,113.10
2023-03-16T07:33:28.173Z,161.00
2023-03-16T07:34:32.737Z,146.07
2023-03-16T07:35:37.362Z,144.40
2023-03-16T07:36:41.992Z,134.10
2023-03-16T07:37:44.058Z,103.72
2023-03-16T07:38:48.667Z,81.05
2023-03-16T07:39:53.263Z,100.18
2023-03-16T07:40:57.810Z,89.10
2023-03-16T07:42:04.956Z,142.00
2023-03-16T07:43:09.576Z,84.15
2023-03-16T07:44:12.126Z,86.50
2023-03-16T07:45:18.100Z,166.18
2023-03-16T07:46:20.274Z,79.07
2023-03-16T07:47:26.565Z,91.72
2023-03-16T07:48:28.808Z,126.53
2023-03-16T07:49:33.427Z,133.30
2023-03-16T07:50:38.365Z,134.52
2023-03-16T07:51:43.391Z,240.68
2023-03-16T07:52:49.003Z,82.30
2023-03-16T07:53:54.019Z,87.35
2023-03-16T07:54:58.887Z,154.88
2023-03-16T07:56:01.456Z,99.53
2023-03-16T07:57:09.082Z,97.63
2023-03-16T07:58:13.835Z,199.20
2023-03-16T07:59:20.772Z,126.25
2023-03-16T08:00:26.725Z,133.18
2023-03-16T08:01:28.980Z,182.35
2023-03-16T08:02:34.110Z,174.60
2023-03-16T08:03:39.102Z,210.82
2023-03-16T08:04:44.894Z,227.73
2023-03-16T08:05:49.969Z,119.18
2023-03-16T08:06:52.535Z,294.05
2023-03-16T08:07:57.874Z,221.00
2023-03-16T08:09:02.520Z,231.52
2023-03-16T08:10:06.745Z,162.15
2023-03-16T08:11:11.610Z,131.90
2023-03-16T08:12:18.916Z,209.18
2023-03-16T08:13:23.796Z,111.53
2023-03-16T08:14:29.129Z,146.00
2023-03-16T08:15:35.233Z,308.52
2023-03-16T08:16:37.574Z,184.20
2023-03-16T08:17:43.229Z,182.93
2023-03-16T08:18:47.812Z,204.43
2023-03-16T08:19:50.207Z,85.78
2023-03-16T08:20:55.329Z,143.15
2023-03-16T08:22:01.611Z,275.40
2023-03-16T08:23:07.166Z,89.78
2023-03-16T08:24:09.284Z,80.07
2023-03-16T08:25:13.999Z,166.20
2023-03-16T08:26:20.089Z,89.00
2023-03-16T08:27:26.085Z,74.13
2023-03-16T08:28:32.079Z,201.27
2023-03-16T08:29:37.908Z,145.38
2023-03-16T08:30:45.185Z,217.57
2023-03-16T08:31:49.788Z,204.65
2023-03-16T08:32:54.865Z,158.82
2023-03-16T08:33:57.386Z,131.60
2023-03-16T08:35:02.741Z,120.03
2023-03-16T08:36:09.478Z,119.75
2023-03-16T08:37:12.518Z,129.10
2023-03-16T08:38:19.352Z,166.40
2023-03-16T08:39:24.098Z,154.70
2023-03-16T08:40:29.875Z,334.88
2023-03-16T08:41:35.059Z,198.13
2023-03-16T08:42:43.196Z,145.65
2023-03-16T08:43:45.244Z,234.52
2023-03-16T08:44:50.993Z,104.50
2023-03-16T08:45:54.080Z,128.80
2023-03-16T08:46:59.483Z,171.93
2023-03-16T08:48:05.159Z,97.25
2023-03-16T08:49:07.342Z,82.60
2023-03-16T08:50:15.714Z,241.10
2023-03-16T08:51:17.820Z,119.68
2023-03-16T08:52:23.128Z,115.72
2023-03-16T08:53:25.272Z,202.43
2023-03-16T08:54:30.363Z,81.63
2023-03-16T08:55:32.351Z,111.88
2023-03-16T08:56:37.061Z,212.13
2023-03-16T08:57:45.333Z,155.05
2023-03-16T08:58:49.981Z,117.28
2023-03-16T08:59:55.201Z,168.13
2023-03-16T09:00:59.781Z,79.95
2023-03-16T09:02:02.002Z,63.25
2023-03-16T09:03:07.561Z,167.00
2023-03-16T09:04:09.680Z,72.60
2023-03-16T09:05:16.423Z,161.30
2023-03-16T09:06:22.363Z,282.42
2023-03-16T09:07:24.455Z,127.45
2023-03-16T09:08:29.425Z,147.30
2023-03-16T09:09:34.974Z,341.92
2023-03-16T09:10:38.116Z,241.82
2023-03-16T09:11:43.028Z,203.05
2023-03-16T09:12:47.711Z,353.30
2023-03-16T09:13:53.219Z,139.95
2023-03-16T09:14:56.291Z,141.43
2023-03-16T09:16:01.064Z,229.75
2023-03-16T09:17:03.135Z,154.90
2023-03-16T09:18:08.085Z,106.63
2023-03-16T09:19:11.839Z,264.23
2023-03-16T09:20:22.723Z,141.65
2023-03-16T09:21:31.276Z,151.50
2023-03-16T09:22:33.479Z,241.93
2023-03-16T09:23:41.922Z,141.63
2023-03-16T09:24:44.094Z,160.00
2023-03-16T09:25:48.895Z,209.02
2023-03-16T09:26:51.007Z,91.85
2023-03-16T09:27:58.355Z,117.35
2023-03-16T09:29:00.837Z,66.53
2023-03-16T09:30:05.838Z,106.18
2023-03-16T09:31:11.781Z,67.50
2023-03-16T09:32:14.450Z,89.47
2023-03-16T09:33:19.812Z,69.63
2023-03-16T09:35:47.843Z,140.40
2023-03-16T09:36:50.472Z,57.72
2023-03-16T09:38:05.508Z,126.00
2023-03-16T09:39:11.750Z,130.43
2023-03-16T09:40:25.650Z,81.85
2023-03-16T09:41:41.950Z,128.73
2023-03-16T09:42:56.836Z,170.40
2023-03-16T09:44:13.568Z,95.20
2023-03-16T09:45:24.104Z,60.85
2023-03-16T09:46:31.756Z,250.27
2023-03-16T09:47:38.784Z,190.68
2023-03-16T09:48:43.921Z,158.25
2023-03-16T09:49:50.920Z,183.90
2023-03-16T09:50:55.135Z,111.15
2023-03-16T09:52:07.796Z,107.53
2023-03-16T09:53:19.702Z,74.90
2023-03-16T09:54:32.312Z,117.25
2023-03-16T09:55:36.643Z,136.18
2023-03-16T09:56:45.334Z,153.18
2023-03-16T09:57:50.150Z,200.82
2023-03-16T09:58:54.886Z,94.60
2023-03-16T10:00:11.124Z,43.05
2023-03-16T10:01:25.628Z,71.28
2023-03-16T10:02:45.087Z,129.70
2023-03-16T10:04:05.109Z,98.40
2023-03-16T10:05:11.909Z,60.65
2023-03-16T10:06:18.169Z,113.55
2023-03-16T10:07:30.566Z,165.63
2023-03-16T10:08:42.182Z,265.77
2023-03-16T10:11:13.647Z,99.00
2023-03-16T10:12:19.206Z,75.00
2023-03-16T10:13:33.577Z,45.45
2023-03-16T10:14:45.625Z,67.05
2023-03-16T10:15:56.787Z,100.25
2023-03-16T10:17:03.245Z,118.82
2023-03-16T10:18:17.375Z,74.70
2023-03-16T10:19:28.551Z,73.72
2023-03-16T10:20:36.777Z,111.43
2023-03-16T10:21:40.714Z,181.05
2023-03-16T10:22:48.065Z,290.17
2023-03-16T10:23:55.221Z,200.05
2023-03-16T10:25:09.955Z,381.23
2023-03-16T10:26:19.068Z,235.10
2023-03-16T10:27:28.800Z,71.00
2023-03-16T10:28:38.643Z,170.35
2023-03-16T10:29:41.535Z,173.85
2023-03-16T10:30:46.452Z,220.30
2023-03-16T10:31:53.824Z,329.35
2023-03-16T10:32:59.867Z,275.90
2023-03-16T10:34:06.031Z,159.68
2023-03-16T10:35:23.487Z,213.15
2023-03-16T10:36:33.719Z,94.57
2023-03-16T10:37:37.641Z,119.60
2023-03-16T10:38:46.785Z,88.78
2023-03-16T10:39:52.142Z,189.07
2023-03-16T10:40:54.438Z,146.30
2023-03-16T10:42:02.802Z,109.40
2023-03-16T10:43:13.113Z,118.97
2023-03-16T10:44:19.670Z,214.02
2023-03-16T10:45:30.655Z,220.65
2023-03-16T10:46:39.631Z,209.93
2023-03-16T10:47:47.000Z,218.75
2023-03-16T10:49:00.359Z,358.20
2023-03-16T10:50:14.443Z,167.38
2023-03-16T10:51:20.278Z,119.78
2023-03-16T10:52:32.394Z,121.18
2023-03-16T10:53:36.987Z,135.23
2023-03-16T10:54:44.361Z,146.90
2023-03-16T10:55:51.584Z,202.13
2023-03-16T10:56:53.626Z,132.57
2023-03-16T10:57:59.073Z,154.40
2023-03-16T10:59:01.245Z,73.97
2023-03-16T11:00:20.701Z,149.38
2023-03-16T11:01:29.573Z,198.18
2023-03-16T11:02:36.756Z,132.43
2023-03-16T11:03:45.245Z,234.85
2023-03-16T11:04:50.876Z,121.00
2023-03-16T11:06:01.062Z,91.20
2023-03-16T11:07:05.776Z,63.67
2023-03-16T11:08:12.301Z,64.13
2023-03-16T11:09:24.884Z,131.70
2023-03-16T11:10:30.698Z,107.10
2023-03-16T11:11:36.213Z,166.43
2023-03-16T11:12:38.542Z,301.85
2023-03-16T11:13:49.569Z,320.42
2023-03-16T11:14:54.874Z,317.20
2023-03-16T11:16:01.805Z,491.50
2023-03-16T11:17:10.660Z,397.17
2023-03-16T11:18:22.744Z,324.70
2023-03-16T11:19:33.213Z,383.08
2023-03-16T11:20:36.166Z,265.23
2023-03-16T11:21:51.538Z,281.77
2023-03-16T11:22:56.403Z,123.57
2023-03-16T11:24:00.496Z,94.95
2023-03-16T11:25:15.717Z,77.38
2023-03-16T11:26:26.030Z,89.43
2023-03-16T11:27:40.513Z,275.38
2023-03-16T11:28:51.792Z,180.23
2023-03-16T11:30:09.848Z,79.20
2023-03-16T11:31:24.485Z,67.05
2023-03-16T11:32:34.573Z,362.65
2023-03-16T11:33:39.200Z,144.32
2023-03-16T11:34:44.956Z,218.90
2023-03-16T11:35:59.306Z,276.88
2023-03-16T11:37:13.636Z,130.88
2023-03-16T11:38:21.797Z,103.88
2023-03-16T11:39:31.934Z,226.27
2023-03-16T11:40:49.113Z,235.93
2023-03-16T11:42:01.362Z,188.75
2023-03-16T11:43:16.756Z,76.20
2023-03-16T11:44:29.249Z,165.48
2023-03-16T11:45:37.714Z,177.35
2023-03-16T11:46:50.992Z,221.38
2023-03-16T11:48:22.734Z,189.55
2023-03-16T11:50:00.223Z,92.78
2023-03-16T11:51:12.002Z,136.57
2023-03-16T11:52:26.626Z,59.92
2023-03-16T11:53:44.141Z,41.38
2023-03-16T11:55:02.655Z,83.00
2023-03-16T11:56:16.180Z,114.18
2023-03-16T11:57:33.834Z,28.42
2023-03-16T11:58:59.355Z,23.08
2023-03-16T12:00:16.227Z,52.92
2023-03-16T12:01:26.252Z,65.72
2023-03-16T12:02:44.231Z,50.05
2023-03-16T12:04:05.040Z,57.72
2023-03-16T12:05:23.613Z,32.50
2023-03-16T12:06:42.223Z,55.28
2023-03-16T12:07:55.741Z,114.30
2023-03-16T12:09:23.152Z,38.63
2023-03-16T12:10:33.028Z,35.90
2023-03-16T12:11:41.934Z,30.70
2023-03-16T12:12:56.322Z,67.30
2023-03-16T12:14:10.675Z,41.65
2023-03-16T12:15:38.543Z,28.20
2023-03-16T12:16:49.608Z,53.38
2023-03-16T12:17:59.128Z,71.70
2023-03-16T12:19:08.859Z,63.97
2023-03-16T12:20:21.371Z,42.42
2023-03-16T12:21:31.689Z,74.28
2023-03-16T12:22:37.484Z,30.55
2023-03-16T12:23:46.603Z,40.70
2023-03-16T12:24:51.362Z,39.80
2023-03-16T12:25:54.084Z,87.35
2023-03-16T12:27:00.504Z,94.00
2023-03-16T12:28:09.575Z,55.72
2023-03-16T12:29:24.702Z,35.33
2023-03-16T12:30:39.157Z,89.15
2023-03-16T12:31:50.326Z,134.77
2023-03-16T12:33:01.532Z,123.43
2023-03-16T12:34:16.420Z,90.03
2023-03-16T12:35:36.699Z,138.18
2023-03-16T12:36:59.181Z,93.82
2023-03-16T12:38:20.958Z,170.05
2023-03-16T12:39:43.168Z,106.10
2023-03-16T12:40:55.554Z,114.40
2023-03-16T12:42:10.119Z,186.95
2023-03-16T12:43:34.451Z,74.47
2023-03-16T12:44:46.911Z,123.97
2023-03-16T12:46:01.269Z,102.68
2023-03-16T12:47:16.062Z,50.72
2023-03-16T12:48:27.302Z,102.65
2023-03-16T12:49:38.469Z,178.10
2023-03-16T12:50:55.812Z,73.47
2023-03-16T12:52:06.000Z,100.50
2023-03-16T12:53:10.556Z,91.38
2023-03-16T12:54:20.829Z,58.95
2023-03-16T12:55:30.008Z,40.17
2023-03-16T12:56:37.625Z,36.50
2023-03-16T12:57:41.478Z,65.45
2023-03-16T12:58:48.644Z,69.38
2023-03-16T12:59:59.154Z,209.35
2023-03-16T13:01:01.242Z,64.45
2023-03-16T13:02:06.860Z,83.97
2023-03-16T13:03:15.736Z,191.02
2023-03-16T13:04:23.598Z,53.58
2023-03-16T13:05:31.968Z,83.55
2023-03-16T13:06:40.496Z,139.85
2023-03-16T13:07:50.482Z,54.63
2023-03-16T13:09:01.182Z,91.57
2023-03-16T13:10:08.943Z,141.48
2023-03-16T13:11:16.590Z,38.60
2023-03-16T13:12:31.036Z,52.42
2023-03-16T13:13:34.303Z,90.28
2023-03-16T13:14:42.771Z,92.22
2023-03-16T13:15:49.752Z,98.00
2023-03-16T13:16:55.702Z,104.32
2023-03-16T13:18:22.338Z,225.32
2023-03-16T13:19:27.361Z,190.10
2023-03-16T13:20:34.840Z,44.63
2023-03-16T13:21:44.235Z,86.10
2023-03-16T13:22:51.453Z,88.45
2023-03-16T13:23:58.869Z,107.07
2023-03-16T13:25:15.768Z,229.48
2023-03-16T13:26:23.657Z,229.38
2023-03-16T13:27:31.156Z,152.20
2023-03-16T13:28:36.425Z,308.40
2023-03-16T13:29:41.658Z,205.27
2023-03-16T13:30:47.304Z,127.88
2023-03-16T13:31:52.892Z,255.73
2023-03-16T13:32:59.209Z,123.80
2023-03-16T13:34:02.906Z,58.45
2023-03-16T13:35:11.514Z,68.70
2023-03-16T13:36:14.480Z,34.38
2023-03-16T13:37:24.208Z,47.58
2023-03-16T13:38:28.709Z,73.80
2023-03-16T13:39:34.916Z,34.80
2023-03-16T13:40:46.407Z,55.42
2023-03-16T13:42:02.462Z,103.68
2023-03-16T13:43:04.486Z,58.35
2023-03-16T13:44:17.165Z,78.40
2023-03-16T13:45:30.282Z,134.73
2023-03-16T13:46:32.239Z,55.88
2023-03-16T13:47:36.975Z,56.35
2023-03-16T13:48:40.363Z,39.35
2023-03-16T13:49:48.787Z,63.03
2023-03-16T13:50:55.594Z,143.50
2023-03-16T13:52:00.272Z,79.38
2023-03-16T13:53:14.659Z,63.00
2023-03-16T13:54:23.898Z,66.38